Normed Antwerpen — V2DG9 — position and weather

sailwx.info

Track history (hours):
 
Tides and Currents Weather Stations Pressure Air Temp Water Temp Dewpoint Dewpoint Depression Visibility Wind Speed Wind Dir Waves Ship Positions

Normed Antwerpen

Last reported at 2015-Feb-08 16:19 UTC. Time now 2015-Feb-27 16:53 UTC.
Position N 07°28' W 014°21'.
Warning: this ship's position is 19 days out of date.

Length 130 m; draft 6.2 m.

Type: Ship. MMSI: 305210993.

Date/timePositionNaut miles runAvg speedWind from/ knotsBaromVisibWave heightAir tempDewpointWater temp
2015-Feb-08 16:19N 07°28' W 014°21'1013.6
2015-Feb-08 15:34N 07°34' W 014°30'1313.3
2015-Feb-08 14:34N 07°40' W 014°42'1613.6
2015-Feb-08 13:25N 07°48' W 014°56'11613.1
2015-Feb-08 04:33N 09°07' W 016°21'3213.2
2015-Feb-08 02:07N 09°31' W 016°43'813.5
2015-Feb-08 01:32N 09°37' W 016°48'1313.2
2015-Feb-08 00:33N 09°47' W 016°57'9312.7
2015-Feb-07 17:12N 11°08' W 017°43'914.0
2015-Feb-07 16:33N 11°17' W 017°43'1414.0
2015-Feb-07 15:33N 11°31' W 017°43'1413.8
2015-Feb-07 14:33N 11°45' W 017°43'1613.6
2015-Feb-07 13:21N 12°01' W 017°43'3113.7
2015-Feb-07 11:04N 12°33' W 017°44'713.2
2015-Feb-07 10:33N 12°39' W 017°43'1313.2
2015-Feb-07 09:33N 12°53' W 017°43'1413.6
2015-Feb-07 08:30N 13°07' W 017°43'  
2015-Jan-30 09:24N 50°26' W 000°34'34 8.9
2015-Jan-30 05:33N 50°35' E 000°18'10 9.9
2015-Jan-30 04:33N 50°38' E 000°33'1211.9
2015-Jan-30 03:33N 50°44' E 000°49'1413.5
2015-Jan-30 02:33N 50°53' E 001°05'1414.4
2015-Jan-30 01:33N 51°01' E 001°23'1413.9
2015-Jan-30 00:33N 51°10' E 001°41'1312.9
2015-Jan-29 23:33N 51°20' E 001°53'1212.5
2015-Jan-29 22:33N 51°31' E 002°03'1212.3
2015-Jan-29 21:33N 51°41' E 002°15'  
Track history (hours):
 
Tides and Currents Weather Stations Pressure Air Temp Water Temp Dewpoint Dewpoint Depression Visibility Wind Speed Wind Dir Waves Ship Positions

Normed Antwerpen

Last reported at 2015-Feb-08 16:19 UTC. Time now 2015-Feb-27 16:53 UTC.
Position N 07°28' W 014°21'.
Warning: this ship's position is 19 days out of date.

Length 130 m; draft 6.2 m.

Type: Ship. MMSI: 305210993.

Date/timePositionNaut miles runAvg speedWind from/ knotsBaromVisibWave heightAir tempDewpointWater temp
2015-Feb-08 16:19N 07°28' W 014°21'1013.6
2015-Feb-08 15:34N 07°34' W 014°30'1313.3
2015-Feb-08 14:34N 07°40' W 014°42'1613.6
2015-Feb-08 13:25N 07°48' W 014°56'11613.1
2015-Feb-08 04:33N 09°07' W 016°21'3213.2
2015-Feb-08 02:07N 09°31' W 016°43'813.5
2015-Feb-08 01:32N 09°37' W 016°48'1313.2
2015-Feb-08 00:33N 09°47' W 016°57'9312.7
2015-Feb-07 17:12N 11°08' W 017°43'914.0
2015-Feb-07 16:33N 11°17' W 017°43'1414.0
2015-Feb-07 15:33N 11°31' W 017°43'1413.8
2015-Feb-07 14:33N 11°45' W 017°43'1613.6
2015-Feb-07 13:21N 12°01' W 017°43'3113.7
2015-Feb-07 11:04N 12°33' W 017°44'713.2
2015-Feb-07 10:33N 12°39' W 017°43'1313.2
2015-Feb-07 09:33N 12°53' W 017°43'1413.6
2015-Feb-07 08:30N 13°07' W 017°43'  
2015-Jan-30 09:24N 50°26' W 000°34'34 8.9
2015-Jan-30 05:33N 50°35' E 000°18'10 9.9
2015-Jan-30 04:33N 50°38' E 000°33'1211.9
2015-Jan-30 03:33N 50°44' E 000°49'1413.5
2015-Jan-30 02:33N 50°53' E 001°05'1414.4
2015-Jan-30 01:33N 51°01' E 001°23'1413.9
2015-Jan-30 00:33N 51°10' E 001°41'1312.9
2015-Jan-29 23:33N 51°20' E 001°53'1212.5
2015-Jan-29 22:33N 51°31' E 002°03'1212.3
2015-Jan-29 21:33N 51°41' E 002°15'  

Dump ship's entire track history